sensor_id;sensor_type;location;lat;lon;timestamp;pressure;altitude;pressure_sealevel;temperature;humidity
73692;BME280;61996;49.910;35.562;2024-02-04T00:00:29;97605.22;;;18.58;38.88
73692;BME280;61996;49.910;35.562;2024-02-04T00:03:34;97606.78;;;18.53;38.77
73692;BME280;61996;49.910;35.562;2024-02-04T00:06:37;97605.31;;;18.50;38.84
73692;BME280;61996;49.910;35.562;2024-02-04T00:09:40;97603.41;;;18.44;38.95
73692;BME280;61996;49.910;35.562;2024-02-04T00:12:45;97607.97;;;18.50;38.83
73692;BME280;61996;49.910;35.562;2024-02-04T00:15:48;97599.63;;;18.39;38.99
73692;BME280;61996;49.910;35.562;2024-02-04T00:18:52;97602.84;;;18.34;38.85
73692;BME280;61996;49.910;35.562;2024-02-04T00:21:56;97594.41;;;18.30;38.79
73692;BME280;61996;49.910;35.562;2024-02-04T00:24:59;97598.16;;;18.51;38.97
73692;BME280;61996;49.910;35.562;2024-02-04T00:28:06;97593.41;;;18.31;39.35
73692;BME280;61996;49.910;35.562;2024-02-04T00:31:09;97600.91;;;18.28;39.78
73692;BME280;61996;49.910;35.562;2024-02-04T00:34:13;97595.25;;;18.16;39.70
73692;BME280;61996;49.910;35.562;2024-02-04T00:37:16;97598.06;;;18.15;40.06
73692;BME280;61996;49.910;35.562;2024-02-04T00:40:19;97591.09;;;18.14;39.86
73692;BME280;61996;49.910;35.562;2024-02-04T00:43:22;97596.16;;;18.08;39.77
73692;BME280;61996;49.910;35.562;2024-02-04T00:46:25;97607.78;;;18.07;39.63
73692;BME280;61996;49.910;35.562;2024-02-04T00:49:29;97597.34;;;18.21;39.59
73692;BME280;61996;49.910;35.562;2024-02-04T00:52:32;97599.16;;;18.05;39.66
73692;BME280;61996;49.910;35.562;2024-02-04T00:55:35;97598.44;;;17.97;39.68
73692;BME280;61996;49.910;35.562;2024-02-04T00:58:38;97599.06;;;17.99;39.80
73692;BME280;61996;49.910;35.562;2024-02-04T01:01:41;97596.22;;;18.00;43.68
73692;BME280;61996;49.910;35.562;2024-02-04T01:04:46;97596.41;;;17.99;42.40
73692;BME280;61996;49.910;35.562;2024-02-04T01:07:50;97589.25;;;17.99;42.50
73692;BME280;61996;49.910;35.562;2024-02-04T01:10:53;97592.94;;;17.98;42.05
73692;BME280;61996;49.910;35.562;2024-02-04T01:13:56;97594.66;;;17.91;42.41
73692;BME280;61996;49.910;35.562;2024-02-04T01:16:59;97593.03;;;17.90;42.50
73692;BME280;61996;49.910;35.562;2024-02-04T01:20:03;97595.19;;;17.87;42.27
73692;BME280;61996;49.910;35.562;2024-02-04T01:23:07;97596.41;;;17.84;42.09
73692;BME280;61996;49.910;35.562;2024-02-04T01:26:10;97594.56;;;17.85;41.97
73692;BME280;61996;49.910;35.562;2024-02-04T01:29:13;97596.78;;;17.81;41.94
73692;BME280;61996;49.910;35.562;2024-02-04T01:32:16;97595.28;;;17.78;42.10
73692;BME280;61996;49.910;35.562;2024-02-04T01:35:20;97599.97;;;17.76;41.95
73692;BME280;61996;49.910;35.562;2024-02-04T01:38:23;97592.81;;;17.77;42.11
73692;BME280;61996;49.910;35.562;2024-02-04T01:41:26;97600.34;;;17.73;42.12
73692;BME280;61996;49.910;35.562;2024-02-04T01:44:29;97608.81;;;17.69;42.13
73692;BME280;61996;49.910;35.562;2024-02-04T01:47:32;97615.72;;;17.78;41.93
73692;BME280;61996;49.910;35.562;2024-02-04T01:50:38;97613.66;;;17.65;41.96
73692;BME280;61996;49.910;35.562;2024-02-04T01:53:42;97624.72;;;17.77;42.24
73692;BME280;61996;49.910;35.562;2024-02-04T01:56:46;97619.09;;;17.72;42.29
73692;BME280;61996;49.910;35.562;2024-02-04T01:59:52;97623.59;;;17.71;42.12
73692;BME280;61996;49.910;35.562;2024-02-04T02:02:57;97624.84;;;17.61;42.53
73692;BME280;61996;49.910;35.562;2024-02-04T02:06:03;97617.41;;;17.56;43.17
73692;BME280;61996;49.910;35.562;2024-02-04T02:09:07;97627.84;;;17.58;42.44
73692;BME280;61996;49.910;35.562;2024-02-04T02:12:13;97632.22;;;17.50;42.71
73692;BME280;61996;49.910;35.562;2024-02-04T02:15:18;97622.41;;;17.51;42.57
73692;BME280;61996;49.910;35.562;2024-02-04T02:18:23;97632.22;;;17.50;42.26
73692;BME280;61996;49.910;35.562;2024-02-04T02:21:38;97630.75;;;17.48;42.87
73692;BME280;61996;49.910;35.562;2024-02-04T02:24:47;97628.09;;;17.48;42.66
73692;BME280;61996;49.910;35.562;2024-02-04T02:27:53;97637.06;;;17.47;42.17
73692;BME280;61996;49.910;35.562;2024-02-04T02:30:56;97637.25;;;17.45;42.81
73692;BME280;61996;49.910;35.562;2024-02-04T02:33:59;97632.47;;;17.41;42.42
73692;BME280;61996;49.910;35.562;2024-02-04T02:37:03;97629.81;;;17.41;42.69
73692;BME280;61996;49.910;35.562;2024-02-04T02:40:12;97636.97;;;17.40;42.45
73692;BME280;61996;49.910;35.562;2024-02-04T02:43:17;97631.28;;;17.43;42.36
73692;BME280;61996;49.910;35.562;2024-02-04T02:46:21;97638.59;;;17.41;42.29
73692;BME280;61996;49.910;35.562;2024-02-04T02:49:25;97640.75;;;17.46;42.12
73692;BME280;61996;49.910;35.562;2024-02-04T02:52:28;97638.91;;;17.46;41.69
73692;BME280;61996;49.910;35.562;2024-02-04T02:55:33;97637.59;;;17.42;41.67
73692;BME280;61996;49.910;35.562;2024-02-04T02:58:36;97639.81;;;17.39;42.15
73692;BME280;61996;49.910;35.562;2024-02-04T03:01:39;97641.16;;;17.35;41.90
73692;BME280;61996;49.910;35.562;2024-02-04T03:04:42;97643.31;;;17.31;41.90
73692;BME280;61996;49.910;35.562;2024-02-04T03:07:45;97644.16;;;17.32;41.75
73692;BME280;61996;49.910;35.562;2024-02-04T03:10:49;97644.50;;;17.29;42.19
73692;BME280;61996;49.910;35.562;2024-02-04T03:13:52;97646.16;;;17.30;42.05
73692;BME280;61996;49.910;35.562;2024-02-04T03:16:55;97650.31;;;17.32;42.02
73692;BME280;61996;49.910;35.562;2024-02-04T03:19:58;97643.50;;;17.30;42.10
73692;BME280;61996;49.910;35.562;2024-02-04T03:23:01;97649.19;;;17.26;42.04
73692;BME280;61996;49.910;35.562;2024-02-04T03:26:05;97640.38;;;17.26;42.17
73692;BME280;61996;49.910;35.562;2024-02-04T03:29:08;97641.41;;;17.25;41.94
73692;BME280;61996;49.910;35.562;2024-02-04T03:32:11;97630.47;;;17.20;42.13
73692;BME280;61996;49.910;35.562;2024-02-04T03:35:14;97633.06;;;17.28;41.93
73692;BME280;61996;49.910;35.562;2024-02-04T03:38:17;97639.94;;;17.37;42.29
73692;BME280;61996;49.910;35.562;2024-02-04T03:41:22;97628.44;;;17.45;41.74
73692;BME280;61996;49.910;35.562;2024-02-04T03:44:24;97640.19;;;17.50;41.54
73692;BME280;61996;49.910;35.562;2024-02-04T03:47:27;97637.75;;;17.64;41.17
73692;BME280;61996;49.910;35.562;2024-02-04T03:50:30;97631.88;;;17.76;41.17
73692;BME280;61996;49.910;35.562;2024-02-04T03:53:33;97632.63;;;17.85;40.62
73692;BME280;61996;49.910;35.562;2024-02-04T03:56:38;97632.53;;;17.93;41.08
73692;BME280;61996;49.910;35.562;2024-02-04T03:59:44;97629.53;;;17.96;40.69
73692;BME280;61996;49.910;35.562;2024-02-04T04:02:47;97631.56;;;18.09;40.47
73692;BME280;61996;49.910;35.562;2024-02-04T04:05:50;97643.28;;;18.15;40.44
73692;BME280;61996;49.910;35.562;2024-02-04T04:08:53;97624.22;;;18.11;39.94
73692;BME280;61996;49.910;35.562;2024-02-04T04:11:57;97634.03;;;18.25;40.29
73692;BME280;61996;49.910;35.562;2024-02-04T04:15:00;97642.84;;;18.26;40.24
73692;BME280;61996;49.910;35.562;2024-02-04T04:18:03;97647.81;;;18.29;40.13
73692;BME280;61996;49.910;35.562;2024-02-04T04:21:06;97653.41;;;18.34;39.83
73692;BME280;61996;49.910;35.562;2024-02-04T04:24:09;97659.91;;;18.31;39.98
73692;BME280;61996;49.910;35.562;2024-02-04T04:27:14;97662.69;;;18.38;40.00
73692;BME280;61996;49.910;35.562;2024-02-04T04:30:17;97659.72;;;18.33;40.30
73692;BME280;61996;49.910;35.562;2024-02-04T04:33:19;97666.25;;;18.30;40.34
73692;BME280;61996;49.910;35.562;2024-02-04T04:36:23;97666.59;;;18.27;40.33
73692;BME280;61996;49.910;35.562;2024-02-04T04:39:26;97677.63;;;18.24;40.32
73692;BME280;61996;49.910;35.562;2024-02-04T04:42:30;97658.38;;;18.22;40.44
73692;BME280;61996;49.910;35.562;2024-02-04T04:45:33;97677.53;;;18.18;40.45
73692;BME280;61996;49.910;35.562;2024-02-04T04:48:37;97675.59;;;18.12;40.48
73692;BME280;61996;49.910;35.562;2024-02-04T04:51:43;97680.34;;;18.01;40.65
73692;BME280;61996;49.910;35.562;2024-02-04T04:54:47;97668.03;;;18.00;40.61
73692;BME280;61996;49.910;35.562;2024-02-04T04:57:51;97689.19;;;17.94;40.77
73692;BME280;61996;49.910;35.562;2024-02-04T05:00:54;97688.81;;;17.82;40.50
73692;BME280;61996;49.910;35.562;2024-02-04T05:03:57;97691.00;;;17.78;40.45
73692;BME280;61996;49.910;35.562;2024-02-04T05:07:00;97690.88;;;17.72;40.63
73692;BME280;61996;49.910;35.562;2024-02-04T05:10:04;97700.03;;;17.69;40.88
73692;BME280;61996;49.910;35.562;2024-02-04T05:13:08;97708.19;;;17.68;40.81
73692;BME280;61996;49.910;35.562;2024-02-04T05:16:11;97691.22;;;17.69;40.80
73692;BME280;61996;49.910;35.562;2024-02-04T05:19:14;97699.53;;;17.66;40.73
73692;BME280;61996;49.910;35.562;2024-02-04T05:22:18;97697.88;;;17.65;40.69
73692;BME280;61996;49.910;35.562;2024-02-04T05:25:20;97698.72;;;17.65;40.83
73692;BME280;61996;49.910;35.562;2024-02-04T05:28:25;97697.25;;;17.63;40.77
73692;BME280;61996;49.910;35.562;2024-02-04T05:31:28;97700.59;;;17.57;40.84
73692;BME280;61996;49.910;35.562;2024-02-04T05:34:31;97706.28;;;17.53;40.88
73692;BME280;61996;49.910;35.562;2024-02-04T05:37:36;97700.59;;;17.57;40.98
73692;BME280;61996;49.910;35.562;2024-02-04T05:40:39;97707.44;;;17.51;40.86
73692;BME280;61996;49.910;35.562;2024-02-04T05:43:43;97707.19;;;17.46;41.01
73692;BME280;61996;49.910;35.562;2024-02-04T05:46:47;97700.38;;;17.43;40.92
73692;BME280;61996;49.910;35.562;2024-02-04T05:49:49;97687.09;;;17.43;40.98
73692;BME280;61996;49.910;35.562;2024-02-04T05:52:53;97692.94;;;17.39;41.06
73692;BME280;61996;49.910;35.562;2024-02-04T05:55:56;97695.13;;;17.35;41.09
73692;BME280;61996;49.910;35.562;2024-02-04T05:59:00;97703.44;;;17.32;40.97
73692;BME280;61996;49.910;35.562;2024-02-04T06:02:03;97698.13;;;17.32;40.99
73692;BME280;61996;49.910;35.562;2024-02-04T06:05:06;97707.06;;;17.31;41.00
73692;BME280;61996;49.910;35.562;2024-02-04T06:08:09;97706.63;;;17.27;41.10
73692;BME280;61996;49.910;35.562;2024-02-04T06:11:12;97703.66;;;17.22;41.20
73692;BME280;61996;49.910;35.562;2024-02-04T06:14:17;97708.78;;;17.24;41.11
73692;BME280;61996;49.910;35.562;2024-02-04T06:17:20;97711.97;;;17.19;41.31
73692;BME280;61996;49.910;35.562;2024-02-04T06:20:23;97705.16;;;17.17;41.25
73692;BME280;61996;49.910;35.562;2024-02-04T06:23:26;97702.00;;;17.21;41.19
73692;BME280;61996;49.910;35.562;2024-02-04T06:26:29;97702.69;;;17.15;41.32
73692;BME280;61996;49.910;35.562;2024-02-04T06:29:33;97706.00;;;17.17;41.33
73692;BME280;61996;49.910;35.562;2024-02-04T06:32:36;97705.53;;;17.14;41.18
73692;BME280;61996;49.910;35.562;2024-02-04T06:35:39;97708.22;;;17.06;41.23
73692;BME280;61996;49.910;35.562;2024-02-04T06:38:42;97715.19;;;17.07;41.30
73692;BME280;61996;49.910;35.562;2024-02-04T06:41:45;97702.09;;;17.05;41.34
73692;BME280;61996;49.910;35.562;2024-02-04T06:44:50;97716.19;;;17.06;41.26
73692;BME280;61996;49.910;35.562;2024-02-04T06:47:53;97725.50;;;17.02;41.48
73692;BME280;61996;49.910;35.562;2024-02-04T06:50:56;97727.16;;;17.03;41.39
73692;BME280;61996;49.910;35.562;2024-02-04T06:53:59;97726.31;;;17.02;41.51
73692;BME280;61996;49.910;35.562;2024-02-04T06:57:02;97731.44;;;17.12;41.19
73692;BME280;61996;49.910;35.562;2024-02-04T07:00:07;97727.47;;;17.08;41.24
73692;BME280;61996;49.910;35.562;2024-02-04T07:03:10;97726.88;;;16.97;41.37
73692;BME280;61996;49.910;35.562;2024-02-04T07:06:13;97727.03;;;16.96;41.55
73692;BME280;61996;49.910;35.562;2024-02-04T07:09:16;97725.19;;;16.96;41.35
73692;BME280;61996;49.910;35.562;2024-02-04T07:12:19;97726.03;;;16.97;41.56
73692;BME280;61996;49.910;35.562;2024-02-04T07:15:23;97734.16;;;16.95;41.35
73692;BME280;61996;49.910;35.562;2024-02-04T07:18:26;97731.53;;;16.87;41.66
73692;BME280;61996;49.910;35.562;2024-02-04T07:21:29;97718.75;;;16.91;41.57
73692;BME280;61996;49.910;35.562;2024-02-04T07:24:32;97724.75;;;16.85;41.59
73692;BME280;61996;49.910;35.562;2024-02-04T07:27:37;97726.22;;;16.87;41.54
73692;BME280;61996;49.910;35.562;2024-02-04T07:30:41;97724.75;;;16.85;41.51
73692;BME280;61996;49.910;35.562;2024-02-04T07:33:44;97727.06;;;16.88;41.40
73692;BME280;61996;49.910;35.562;2024-02-04T07:36:47;97735.56;;;16.83;41.46
73692;BME280;61996;49.910;35.562;2024-02-04T07:39:50;97746.00;;;16.85;41.53
73692;BME280;61996;49.910;35.562;2024-02-04T07:42:53;97739.19;;;16.82;41.53
73692;BME280;61996;49.910;35.562;2024-02-04T07:45:58;97735.06;;;16.80;41.61
73692;BME280;61996;49.910;35.562;2024-02-04T07:49:05;97735.69;;;16.82;41.66
73692;BME280;61996;49.910;35.562;2024-02-04T07:52:08;97744.50;;;16.82;41.48
73692;BME280;61996;49.910;35.562;2024-02-04T07:55:11;97742.38;;;16.78;41.45
73692;BME280;61996;49.910;35.562;2024-02-04T07:58:14;97741.19;;;16.80;41.72
73692;BME280;61996;49.910;35.562;2024-02-04T08:01:19;97747.00;;;16.76;41.70
73692;BME280;61996;49.910;35.562;2024-02-04T08:04:22;97756.66;;;16.77;41.60
73692;BME280;61996;49.910;35.562;2024-02-04T08:07:25;97747.00;;;16.76;41.53
73692;BME280;61996;49.910;35.562;2024-02-04T08:10:28;97750.50;;;16.76;41.66
73692;BME280;61996;49.910;35.562;2024-02-04T08:13:31;97749.00;;;16.74;41.68
73692;BME280;61996;49.910;35.562;2024-02-04T08:16:35;97752.16;;;16.77;41.49
73692;BME280;61996;49.910;35.562;2024-02-04T08:19:38;97762.47;;;16.72;41.58
73692;BME280;61996;49.910;35.562;2024-02-04T08:22:41;97763.47;;;16.71;41.73
73692;BME280;61996;49.910;35.562;2024-02-04T08:25:44;97771.06;;;16.74;41.62
73692;BME280;61996;49.910;35.562;2024-02-04T08:28:48;97764.75;;;16.75;41.73
73692;BME280;61996;49.910;35.562;2024-02-04T08:31:52;97777.38;;;16.73;41.54
73692;BME280;61996;49.910;35.562;2024-02-04T08:34:55;97761.47;;;16.73;41.73
73692;BME280;61996;49.910;35.562;2024-02-04T08:37:59;97772.25;;;16.71;41.48
73692;BME280;61996;49.910;35.562;2024-02-04T08:41:02;97763.75;;;16.68;41.67
73692;BME280;61996;49.910;35.562;2024-02-04T08:44:05;97778.56;;;16.70;41.52
73692;BME280;61996;49.910;35.562;2024-02-04T08:47:11;97774.72;;;16.65;41.55
73692;BME280;61996;49.910;35.562;2024-02-04T08:50:16;97774.91;;;16.71;41.51
73692;BME280;61996;49.910;35.562;2024-02-04T08:53:19;97778.03;;;16.75;41.33
73692;BME280;61996;49.910;35.562;2024-02-04T08:56:22;97765.13;;;16.72;41.45
73692;BME280;61996;49.910;35.562;2024-02-04T08:59:24;97765.25;;;16.79;41.49
73692;BME280;61996;49.910;35.562;2024-02-04T09:02:29;97763.59;;;16.78;41.37
73692;BME280;61996;49.910;35.562;2024-02-04T09:05:32;97764.63;;;16.77;41.24
73692;BME280;61996;49.910;35.562;2024-02-04T09:08:35;97771.06;;;16.74;41.31
73692;BME280;61996;49.910;35.562;2024-02-04T09:11:38;97767.41;;;16.75;41.39
73692;BME280;61996;49.910;35.562;2024-02-04T09:14:40;97771.56;;;16.78;41.30
73692;BME280;61996;49.910;35.562;2024-02-04T09:17:45;97765.09;;;16.80;41.15
73692;BME280;61996;49.910;35.562;2024-02-04T09:20:48;97774.16;;;16.94;40.90
73692;BME280;61996;49.910;35.562;2024-02-04T09:23:51;97776.78;;;17.02;40.72
73692;BME280;61996;49.910;35.562;2024-02-04T09:26:55;97768.44;;;17.13;40.67
73692;BME280;61996;49.910;35.562;2024-02-04T09:29:58;97765.41;;;17.24;40.55
73692;BME280;61996;49.910;35.562;2024-02-04T09:33:02;97764.38;;;17.34;40.37
73692;BME280;61996;49.910;35.562;2024-02-04T09:36:07;97772.94;;;17.44;40.11
73692;BME280;61996;49.910;35.562;2024-02-04T09:39:10;97768.31;;;17.46;40.19
73692;BME280;61996;49.910;35.562;2024-02-04T09:42:20;97758.78;;;17.51;40.13
73692;BME280;61996;49.910;35.562;2024-02-04T09:45:24;97762.56;;;17.57;39.96
73692;BME280;61996;49.910;35.562;2024-02-04T09:48:31;97753.25;;;17.61;40.06
73692;BME280;61996;49.910;35.562;2024-02-04T09:51:35;97761.53;;;17.66;39.92
73692;BME280;61996;49.910;35.562;2024-02-04T09:54:39;97754.00;;;17.70;39.81
73692;BME280;61996;49.910;35.562;2024-02-04T09:57:45;97748.38;;;17.73;39.84
73692;BME280;61996;49.910;35.562;2024-02-04T10:00:48;97757.28;;;17.80;39.70
73692;BME280;61996;49.910;35.562;2024-02-04T10:03:55;97748.16;;;17.83;39.65
73692;BME280;61996;49.910;35.562;2024-02-04T10:06:58;97753.09;;;17.86;39.77
73692;BME280;61996;49.910;35.562;2024-02-04T10:10:01;97760.53;;;17.90;39.65
73692;BME280;61996;49.910;35.562;2024-02-04T10:13:06;97747.56;;;17.95;39.58
73692;BME280;61996;49.910;35.562;2024-02-04T10:16:09;97752.69;;;17.97;39.54
73692;BME280;61996;49.910;35.562;2024-02-04T10:19:13;97746.84;;;18.01;39.56
73692;BME280;61996;49.910;35.562;2024-02-04T10:22:16;97733.53;;;18.01;39.54
73692;BME280;61996;49.910;35.562;2024-02-04T10:25:20;97738.31;;;18.06;39.53
73692;BME280;61996;49.910;35.562;2024-02-04T10:28:23;97755.09;;;18.06;39.55
73692;BME280;61996;49.910;35.562;2024-02-04T10:31:26;97745.75;;;18.11;39.54
73692;BME280;61996;49.910;35.562;2024-02-04T10:34:30;97741.91;;;18.13;39.38
73692;BME280;61996;49.910;35.562;2024-02-04T10:37:33;97741.72;;;18.15;39.34
73692;BME280;61996;49.910;35.562;2024-02-04T10:40:36;97742.56;;;18.15;39.56
73692;BME280;61996;49.910;35.562;2024-02-04T10:43:41;97741.19;;;18.19;39.42
73692;BME280;61996;49.910;35.562;2024-02-04T10:46:45;97736.88;;;18.18;39.39
73692;BME280;61996;49.910;35.562;2024-02-04T10:49:51;97740.28;;;18.27;39.33
73692;BME280;61996;49.910;35.562;2024-02-04T10:52:56;97732.78;;;18.30;39.35
73692;BME280;61996;49.910;35.562;2024-02-04T10:56:02;97739.94;;;18.30;39.34
73692;BME280;61996;49.910;35.562;2024-02-04T10:59:06;97744.25;;;18.31;39.29
73692;BME280;61996;49.910;35.562;2024-02-04T11:02:11;97738.53;;;18.34;39.39
73692;BME280;61996;49.910;35.562;2024-02-04T11:05:15;97730.94;;;18.31;39.33
73692;BME280;61996;49.910;35.562;2024-02-04T11:08:19;97733.91;;;18.36;39.28
73692;BME280;61996;49.910;35.562;2024-02-04T11:11:23;97728.56;;;18.36;39.34
73692;BME280;61996;49.910;35.562;2024-02-04T11:14:28;97737.19;;;18.38;39.42
73692;BME280;61996;49.910;35.562;2024-02-04T11:20:57;97725.16;;;18.42;39.30
73692;BME280;61996;49.910;35.562;2024-02-04T11:24:08;97732.31;;;18.42;39.20
73692;BME280;61996;49.910;35.562;2024-02-04T11:27:14;97735.53;;;18.37;39.32
73692;BME280;61996;49.910;35.562;2024-02-04T11:30:18;97731.22;;;18.36;39.44
73692;BME280;61996;49.910;35.562;2024-02-04T11:33:22;97733.59;;;18.31;39.42
73692;BME280;61996;49.910;35.562;2024-02-04T11:36:27;97736.78;;;18.26;39.63
73692;BME280;61996;49.910;35.562;2024-02-04T11:39:30;97737.31;;;18.22;39.66
73692;BME280;61996;49.910;35.562;2024-02-04T11:42:33;97744.84;;;18.18;39.64
73692;BME280;61996;49.910;35.562;2024-02-04T11:45:37;97749.88;;;18.13;39.74
73692;BME280;61996;49.910;35.562;2024-02-04T11:48:41;97735.75;;;18.13;39.67
73692;BME280;61996;49.910;35.562;2024-02-04T11:51:50;97738.69;;;18.03;39.78
73692;BME280;61996;49.910;35.562;2024-02-04T11:54:53;97742.88;;;17.97;40.03
73692;BME280;61996;49.910;35.562;2024-02-04T11:57:57;97742.25;;;17.95;39.97
73692;BME280;61996;49.910;35.562;2024-02-04T12:01:00;97750.91;;;17.89;40.13
73692;BME280;61996;49.910;35.562;2024-02-04T12:04:11;97738.34;;;17.83;40.36
73692;BME280;61996;49.910;35.562;2024-02-04T12:07:17;97733.84;;;17.84;40.24
73692;BME280;61996;49.910;35.562;2024-02-04T12:10:21;97740.34;;;17.81;40.20
73692;BME280;61996;49.910;35.562;2024-02-04T12:13:24;97741.00;;;17.83;40.18
73692;BME280;61996;49.910;35.562;2024-02-04T12:16:27;97739.03;;;17.77;40.30
73692;BME280;61996;49.910;35.562;2024-02-04T12:19:30;97739.03;;;17.77;40.32
73692;BME280;61996;49.910;35.562;2024-02-04T12:22:35;97745.19;;;17.77;40.31
73692;BME280;61996;49.910;35.562;2024-02-04T12:25:38;97741.06;;;17.75;40.34
73692;BME280;61996;49.910;35.562;2024-02-04T12:28:45;97743.03;;;17.73;40.30
73692;BME280;61996;49.910;35.562;2024-02-04T12:31:48;97743.56;;;17.68;40.35
73692;BME280;61996;49.910;35.562;2024-02-04T12:35:00;97744.72;;;17.66;40.38
73692;BME280;61996;49.910;35.562;2024-02-04T12:38:04;97743.25;;;17.63;40.45
73692;BME280;61996;49.910;35.562;2024-02-04T12:41:12;97744.16;;;17.56;40.49
73692;BME280;61996;49.910;35.562;2024-02-04T12:44:17;97750.72;;;17.68;40.59
73692;BME280;61996;49.910;35.562;2024-02-04T12:47:20;97761.69;;;17.65;40.51
73692;BME280;61996;49.910;35.562;2024-02-04T12:50:23;97757.88;;;17.59;40.79
73692;BME280;61996;49.910;35.562;2024-02-04T12:53:29;97761.28;;;17.53;40.68
73692;BME280;61996;49.910;35.562;2024-02-04T12:56:42;97764.88;;;17.60;40.74
73692;BME280;61996;49.910;35.562;2024-02-04T12:59:45;97769.25;;;17.53;40.60
73692;BME280;61996;49.910;35.562;2024-02-04T13:02:49;97772.69;;;17.62;40.84
73692;BME280;61996;49.910;35.562;2024-02-04T13:05:56;97777.47;;;17.66;40.55
73692;BME280;61996;49.910;35.562;2024-02-04T13:09:01;97765.84;;;17.67;40.54
73692;BME280;61996;49.910;35.562;2024-02-04T13:12:04;97766.97;;;17.73;40.51
73692;BME280;61996;49.910;35.562;2024-02-04T13:15:07;97772.72;;;17.85;40.35
73692;BME280;61996;49.910;35.562;2024-02-04T13:18:10;97768.34;;;17.92;40.17
73692;BME280;61996;49.910;35.562;2024-02-04T13:21:13;97776.09;;;18.01;40.14
73692;BME280;61996;49.910;35.562;2024-02-04T13:24:23;97781.69;;;18.06;39.91
73692;BME280;61996;49.910;35.562;2024-02-04T13:27:25;97779.34;;;18.12;40.06
73692;BME280;61996;49.910;35.562;2024-02-04T13:30:28;97774.22;;;18.25;39.83
73692;BME280;61996;49.910;35.562;2024-02-04T13:33:32;97777.09;;;18.23;39.80
73692;BME280;61996;49.910;35.562;2024-02-04T13:36:35;97778.34;;;18.27;39.66
73692;BME280;61996;49.910;35.562;2024-02-04T13:39:39;97784.47;;;18.36;39.94
73692;BME280;61996;49.910;35.562;2024-02-04T13:42:43;97786.09;;;18.37;39.45
73692;BME280;61996;49.910;35.562;2024-02-04T13:45:46;97779.59;;;18.54;39.28
73692;BME280;61996;49.910;35.562;2024-02-04T13:48:49;97795.94;;;18.51;39.68
73692;BME280;61996;49.910;35.562;2024-02-04T13:51:52;97790.97;;;18.48;39.65
73692;BME280;61996;49.910;35.562;2024-02-04T13:54:57;97791.09;;;18.55;39.92
73692;BME280;61996;49.910;35.562;2024-02-04T13:58:00;97801.72;;;18.55;39.64
73692;BME280;61996;49.910;35.562;2024-02-04T14:01:03;97801.53;;;18.56;39.69
73692;BME280;61996;49.910;35.562;2024-02-04T14:04:06;97800.19;;;18.60;39.63
73692;BME280;61996;49.910;35.562;2024-02-04T14:07:09;97806.00;;;18.64;39.49
73692;BME280;61996;49.910;35.562;2024-02-04T14:10:14;97813.78;;;18.66;39.43
73692;BME280;61996;49.910;35.562;2024-02-04T14:13:17;97812.63;;;18.68;39.69
73692;BME280;61996;49.910;35.562;2024-02-04T14:16:20;97809.94;;;18.68;39.67
73692;BME280;61996;49.910;35.562;2024-02-04T14:19:23;97806.56;;;18.74;39.39
73692;BME280;61996;49.910;35.562;2024-02-04T14:22:26;97812.28;;;18.71;39.46
73692;BME280;61996;49.910;35.562;2024-02-04T14:25:30;97806.56;;;18.74;39.41
73692;BME280;61996;49.910;35.562;2024-02-04T14:28:33;97803.53;;;18.77;39.40
73692;BME280;61996;49.910;35.562;2024-02-04T14:31:42;97807.69;;;18.80;39.37
73692;BME280;61996;49.910;35.562;2024-02-04T14:34:46;97822.16;;;18.77;39.36
73692;BME280;61996;49.910;35.562;2024-02-04T14:37:49;97819.44;;;18.85;39.12
73692;BME280;61996;49.910;35.562;2024-02-04T14:40:53;97814.66;;;18.81;39.28
73692;BME280;61996;49.910;35.562;2024-02-04T14:43:56;97826.41;;;18.86;39.19
73692;BME280;61996;49.910;35.562;2024-02-04T14:46:59;97819.25;;;18.87;39.07
73692;BME280;61996;49.910;35.562;2024-02-04T14:50:02;97829.09;;;18.86;39.11
73692;BME280;61996;49.910;35.562;2024-02-04T14:53:05;97833.41;;;18.87;39.00
73692;BME280;61996;49.910;35.562;2024-02-04T14:56:10;97821.72;;;19.03;38.89
73692;BME280;61996;49.910;35.562;2024-02-04T14:59:13;97827.25;;;19.02;39.26
73692;BME280;61996;49.910;35.562;2024-02-04T15:02:23;97832.09;;;18.98;39.23
73692;BME280;61996;49.910;35.562;2024-02-04T15:05:26;97837.53;;;18.90;39.66
73692;BME280;61996;49.910;35.562;2024-02-04T15:08:29;97837.91;;;19.02;39.32
73692;BME280;61996;49.910;35.562;2024-02-04T15:11:34;97837.25;;;18.85;39.97
73692;BME280;61996;49.910;35.562;2024-02-04T15:14:38;97834.31;;;18.80;40.17
73692;BME280;61996;49.910;35.562;2024-02-04T15:17:41;97841.81;;;18.76;39.95
73692;BME280;61996;49.910;35.562;2024-02-04T15:20:44;97831.88;;;18.70;40.19
73692;BME280;61996;49.910;35.562;2024-02-04T15:23:47;97840.06;;;18.69;39.92
73692;BME280;61996;49.910;35.562;2024-02-04T15:26:52;97833.78;;;18.61;40.07
73692;BME280;61996;49.910;35.562;2024-02-04T15:29:55;97837.25;;;18.47;40.20
73692;BME280;61996;49.910;35.562;2024-02-04T15:32:59;97836.59;;;18.45;40.24
73692;BME280;61996;49.910;35.562;2024-02-04T15:36:02;97841.63;;;18.40;40.31
73692;BME280;61996;49.910;35.562;2024-02-04T15:39:07;97843.97;;;18.35;40.37
73692;BME280;61996;49.910;35.562;2024-02-04T15:42:14;97849.31;;;18.35;40.29
73692;BME280;61996;49.910;35.562;2024-02-04T15:45:17;97844.34;;;18.32;40.39
73692;BME280;61996;49.910;35.562;2024-02-04T15:48:20;97844.06;;;18.27;40.46
73692;BME280;61996;49.910;35.562;2024-02-04T15:51:25;97844.34;;;18.32;40.45
73692;BME280;61996;49.910;35.562;2024-02-04T15:54:30;97844.66;;;18.37;40.21
73692;BME280;61996;49.910;35.562;2024-02-04T15:57:35;97849.97;;;18.37;40.34
73692;BME280;61996;49.910;35.562;2024-02-04T16:00:39;97847.84;;;18.32;40.32
73692;BME280;61996;49.910;35.562;2024-02-04T16:03:42;97838.63;;;18.20;40.41